sensor_id;sensor_type;location;lat;lon;timestamp;P1;durP1;ratioP1;P2;durP2;ratioP2
67108;SDS011;54027;50.786;7.058;2024-02-21T00:01:45;20.60;;;6.85;;
67108;SDS011;54027;50.786;7.058;2024-02-21T00:04:10;13.77;;;6.07;;
67108;SDS011;54027;50.786;7.058;2024-02-21T00:06:35;10.73;;;5.18;;
67108;SDS011;54027;50.786;7.058;2024-02-21T00:09:01;14.57;;;6.50;;
67108;SDS011;54027;50.786;7.058;2024-02-21T00:11:26;16.10;;;5.97;;
67108;SDS011;54027;50.786;7.058;2024-02-21T00:13:52;21.50;;;6.95;;
67108;SDS011;54027;50.786;7.058;2024-02-21T00:16:17;13.57;;;5.60;;
67108;SDS011;54027;50.786;7.058;2024-02-21T00:18:43;12.75;;;5.82;;
67108;SDS011;54027;50.786;7.058;2024-02-21T00:21:08;12.23;;;5.72;;
67108;SDS011;54027;50.786;7.058;2024-02-21T00:23:34;15.32;;;5.78;;
67108;SDS011;54027;50.786;7.058;2024-02-21T00:25:59;16.38;;;5.25;;
67108;SDS011;54027;50.786;7.058;2024-02-21T00:28:24;13.73;;;6.00;;
67108;SDS011;54027;50.786;7.058;2024-02-21T00:30:50;16.15;;;5.70;;
67108;SDS011;54027;50.786;7.058;2024-02-21T00:33:19;12.20;;;5.78;;
67108;SDS011;54027;50.786;7.058;2024-02-21T00:35:44;14.73;;;5.60;;
67108;SDS011;54027;50.786;7.058;2024-02-21T00:38:09;12.88;;;5.70;;
67108;SDS011;54027;50.786;7.058;2024-02-21T00:40:35;15.82;;;5.40;;
67108;SDS011;54027;50.786;7.058;2024-02-21T00:43:00;16.48;;;5.88;;
67108;SDS011;54027;50.786;7.058;2024-02-21T00:45:26;13.15;;;5.75;;
67108;SDS011;54027;50.786;7.058;2024-02-21T00:47:51;14.88;;;5.95;;
67108;SDS011;54027;50.786;7.058;2024-02-21T00:50:17;17.55;;;5.85;;
67108;SDS011;54027;50.786;7.058;2024-02-21T00:52:42;15.60;;;5.60;;
67108;SDS011;54027;50.786;7.058;2024-02-21T00:55:08;13.45;;;4.85;;
67108;SDS011;54027;50.786;7.058;2024-02-21T00:57:34;16.63;;;6.03;;
67108;SDS011;54027;50.786;7.058;2024-02-21T00:59:59;12.77;;;4.78;;
67108;SDS011;54027;50.786;7.058;2024-02-21T01:02:24;15.90;;;5.82;;
67108;SDS011;54027;50.786;7.058;2024-02-21T01:04:50;14.82;;;5.45;;
67108;SDS011;54027;50.786;7.058;2024-02-21T01:07:15;10.48;;;4.90;;
67108;SDS011;54027;50.786;7.058;2024-02-21T01:09:40;13.35;;;4.70;;
67108;SDS011;54027;50.786;7.058;2024-02-21T01:12:06;14.35;;;5.15;;
67108;SDS011;54027;50.786;7.058;2024-02-21T01:14:31;16.63;;;4.93;;
67108;SDS011;54027;50.786;7.058;2024-02-21T01:16:57;13.43;;;5.15;;
67108;SDS011;54027;50.786;7.058;2024-02-21T01:19:22;14.63;;;5.13;;
67108;SDS011;54027;50.786;7.058;2024-02-21T01:21:47;18.58;;;5.75;;
67108;SDS011;54027;50.786;7.058;2024-02-21T01:24:13;16.75;;;5.82;;
67108;SDS011;54027;50.786;7.058;2024-02-21T01:26:39;13.35;;;5.13;;
67108;SDS011;54027;50.786;7.058;2024-02-21T01:29:05;19.42;;;5.13;;
67108;SDS011;54027;50.786;7.058;2024-02-21T01:31:30;9.52;;;4.75;;
67108;SDS011;54027;50.786;7.058;2024-02-21T01:33:56;13.55;;;5.38;;
67108;SDS011;54027;50.786;7.058;2024-02-21T01:36:21;12.52;;;4.85;;
67108;SDS011;54027;50.786;7.058;2024-02-21T01:38:46;15.25;;;5.28;;
67108;SDS011;54027;50.786;7.058;2024-02-21T01:41:12;9.63;;;4.53;;
67108;SDS011;54027;50.786;7.058;2024-02-21T01:43:37;13.25;;;5.07;;
67108;SDS011;54027;50.786;7.058;2024-02-21T01:46:02;12.30;;;4.70;;
67108;SDS011;54027;50.786;7.058;2024-02-21T01:48:28;12.38;;;4.65;;
67108;SDS011;54027;50.786;7.058;2024-02-21T01:50:54;11.02;;;4.38;;
67108;SDS011;54027;50.786;7.058;2024-02-21T01:53:22;10.68;;;4.80;;
67108;SDS011;54027;50.786;7.058;2024-02-21T01:55:50;10.95;;;4.25;;
67108;SDS011;54027;50.786;7.058;2024-02-21T01:58:16;9.68;;;5.15;;
67108;SDS011;54027;50.786;7.058;2024-02-21T02:00:42;14.38;;;5.00;;
67108;SDS011;54027;50.786;7.058;2024-02-21T02:03:10;11.90;;;4.57;;
67108;SDS011;54027;50.786;7.058;2024-02-21T02:05:41;12.85;;;5.25;;
67108;SDS011;54027;50.786;7.058;2024-02-21T02:08:08;12.18;;;4.30;;
67108;SDS011;54027;50.786;7.058;2024-02-21T02:10:33;15.68;;;5.28;;
67108;SDS011;54027;50.786;7.058;2024-02-21T02:13:00;11.95;;;4.53;;
67108;SDS011;54027;50.786;7.058;2024-02-21T02:15:25;21.17;;;5.07;;
67108;SDS011;54027;50.786;7.058;2024-02-21T02:17:50;14.05;;;4.40;;
67108;SDS011;54027;50.786;7.058;2024-02-21T02:20:16;12.55;;;4.60;;
67108;SDS011;54027;50.786;7.058;2024-02-21T02:22:41;14.27;;;4.57;;
67108;SDS011;54027;50.786;7.058;2024-02-21T02:25:08;16.75;;;4.82;;
67108;SDS011;54027;50.786;7.058;2024-02-21T02:27:40;13.52;;;4.78;;
67108;SDS011;54027;50.786;7.058;2024-02-21T02:30:07;12.48;;;4.15;;
67108;SDS011;54027;50.786;7.058;2024-02-21T02:32:32;10.07;;;4.75;;
67108;SDS011;54027;50.786;7.058;2024-02-21T02:34:58;11.55;;;4.70;;
67108;SDS011;54027;50.786;7.058;2024-02-21T02:37:23;13.57;;;4.72;;
67108;SDS011;54027;50.786;7.058;2024-02-21T02:39:48;16.90;;;5.00;;
67108;SDS011;54027;50.786;7.058;2024-02-21T02:42:14;14.48;;;5.75;;
67108;SDS011;54027;50.786;7.058;2024-02-21T02:44:39;9.77;;;4.57;;
67108;SDS011;54027;50.786;7.058;2024-02-21T02:47:05;13.60;;;4.93;;
67108;SDS011;54027;50.786;7.058;2024-02-21T02:49:30;11.63;;;4.07;;
67108;SDS011;54027;50.786;7.058;2024-02-21T02:51:55;11.95;;;4.35;;
67108;SDS011;54027;50.786;7.058;2024-02-21T02:54:21;12.55;;;4.30;;
67108;SDS011;54027;50.786;7.058;2024-02-21T02:56:46;11.57;;;4.78;;
67108;SDS011;54027;50.786;7.058;2024-02-21T02:59:11;10.65;;;4.20;;
67108;SDS011;54027;50.786;7.058;2024-02-21T03:01:37;17.00;;;5.28;;
67108;SDS011;54027;50.786;7.058;2024-02-21T03:04:03;12.13;;;4.00;;
67108;SDS011;54027;50.786;7.058;2024-02-21T03:06:28;10.63;;;4.22;;
67108;SDS011;54027;50.786;7.058;2024-02-21T03:08:54;12.57;;;4.22;;
67108;SDS011;54027;50.786;7.058;2024-02-21T03:11:19;16.35;;;4.65;;
67108;SDS011;54027;50.786;7.058;2024-02-21T03:13:46;10.77;;;4.25;;
67108;SDS011;54027;50.786;7.058;2024-02-21T03:16:11;17.23;;;4.82;;
67108;SDS011;54027;50.786;7.058;2024-02-21T03:18:36;10.25;;;4.00;;
67108;SDS011;54027;50.786;7.058;2024-02-21T03:21:02;11.75;;;4.55;;
67108;SDS011;54027;50.786;7.058;2024-02-21T03:23:27;11.10;;;3.78;;
67108;SDS011;54027;50.786;7.058;2024-02-21T03:25:53;14.27;;;4.32;;
67108;SDS011;54027;50.786;7.058;2024-02-21T03:28:18;13.90;;;4.70;;
67108;SDS011;54027;50.786;7.058;2024-02-21T03:30:43;10.52;;;4.00;;
67108;SDS011;54027;50.786;7.058;2024-02-21T03:33:09;12.55;;;4.45;;
67108;SDS011;54027;50.786;7.058;2024-02-21T03:35:34;10.85;;;4.60;;
67108;SDS011;54027;50.786;7.058;2024-02-21T03:37:59;9.00;;;4.18;;
67108;SDS011;54027;50.786;7.058;2024-02-21T03:40:24;11.60;;;4.55;;
67108;SDS011;54027;50.786;7.058;2024-02-21T03:42:50;9.18;;;4.32;;
67108;SDS011;54027;50.786;7.058;2024-02-21T03:45:15;8.48;;;3.72;;
67108;SDS011;54027;50.786;7.058;2024-02-21T03:47:40;11.23;;;4.82;;
67108;SDS011;54027;50.786;7.058;2024-02-21T03:50:06;11.45;;;4.80;;
67108;SDS011;54027;50.786;7.058;2024-02-21T03:52:32;9.35;;;4.43;;
67108;SDS011;54027;50.786;7.058;2024-02-21T03:54:57;10.13;;;4.55;;
67108;SDS011;54027;50.786;7.058;2024-02-21T03:57:22;10.70;;;4.47;;
67108;SDS011;54027;50.786;7.058;2024-02-21T03:59:51;10.35;;;4.40;;
67108;SDS011;54027;50.786;7.058;2024-02-21T04:02:17;12.57;;;4.60;;
67108;SDS011;54027;50.786;7.058;2024-02-21T04:04:43;12.80;;;3.92;;
67108;SDS011;54027;50.786;7.058;2024-02-21T04:07:12;9.45;;;4.13;;
67108;SDS011;54027;50.786;7.058;2024-02-21T04:09:38;11.32;;;4.22;;
67108;SDS011;54027;50.786;7.058;2024-02-21T04:12:03;15.32;;;4.28;;
67108;SDS011;54027;50.786;7.058;2024-02-21T04:14:29;11.63;;;4.07;;
67108;SDS011;54027;50.786;7.058;2024-02-21T04:16:54;12.57;;;4.68;;
67108;SDS011;54027;50.786;7.058;2024-02-21T04:19:20;12.73;;;4.65;;
67108;SDS011;54027;50.786;7.058;2024-02-21T04:21:45;11.70;;;3.88;;
67108;SDS011;54027;50.786;7.058;2024-02-21T04:24:10;18.52;;;4.55;;
67108;SDS011;54027;50.786;7.058;2024-02-21T04:26:35;9.35;;;4.53;;
67108;SDS011;54027;50.786;7.058;2024-02-21T04:29:01;11.95;;;4.10;;
67108;SDS011;54027;50.786;7.058;2024-02-21T04:31:26;10.60;;;4.28;;
67108;SDS011;54027;50.786;7.058;2024-02-21T04:33:52;12.18;;;4.75;;
67108;SDS011;54027;50.786;7.058;2024-02-21T04:36:17;11.63;;;5.13;;
67108;SDS011;54027;50.786;7.058;2024-02-21T04:38:42;9.98;;;4.13;;
67108;SDS011;54027;50.786;7.058;2024-02-21T04:41:08;16.60;;;4.70;;
67108;SDS011;54027;50.786;7.058;2024-02-21T04:43:33;12.98;;;4.28;;
67108;SDS011;54027;50.786;7.058;2024-02-21T04:45:58;14.82;;;4.53;;
67108;SDS011;54027;50.786;7.058;2024-02-21T04:48:23;12.75;;;4.15;;
67108;SDS011;54027;50.786;7.058;2024-02-21T04:50:49;10.75;;;4.25;;
67108;SDS011;54027;50.786;7.058;2024-02-21T04:53:14;12.80;;;4.28;;
67108;SDS011;54027;50.786;7.058;2024-02-21T04:55:41;12.30;;;3.88;;
67108;SDS011;54027;50.786;7.058;2024-02-21T04:58:06;14.32;;;4.15;;
67108;SDS011;54027;50.786;7.058;2024-02-21T05:00:32;11.35;;;4.95;;
67108;SDS011;54027;50.786;7.058;2024-02-21T05:02:57;12.80;;;4.40;;
67108;SDS011;54027;50.786;7.058;2024-02-21T05:05:23;13.35;;;4.05;;
67108;SDS011;54027;50.786;7.058;2024-02-21T05:07:48;10.70;;;4.43;;
67108;SDS011;54027;50.786;7.058;2024-02-21T05:10:13;12.13;;;3.95;;
67108;SDS011;54027;50.786;7.058;2024-02-21T05:12:39;10.82;;;4.45;;
67108;SDS011;54027;50.786;7.058;2024-02-21T05:15:04;8.20;;;3.40;;
67108;SDS011;54027;50.786;7.058;2024-02-21T05:17:30;9.10;;;4.13;;
67108;SDS011;54027;50.786;7.058;2024-02-21T05:19:55;8.98;;;3.63;;
67108;SDS011;54027;50.786;7.058;2024-02-21T05:22:21;11.23;;;3.83;;
67108;SDS011;54027;50.786;7.058;2024-02-21T05:24:46;14.02;;;4.75;;
67108;SDS011;54027;50.786;7.058;2024-02-21T05:27:12;11.30;;;3.70;;
67108;SDS011;54027;50.786;7.058;2024-02-21T05:29:37;7.05;;;3.17;;
67108;SDS011;54027;50.786;7.058;2024-02-21T05:32:02;10.05;;;3.90;;
67108;SDS011;54027;50.786;7.058;2024-02-21T05:34:28;6.65;;;3.38;;
67108;SDS011;54027;50.786;7.058;2024-02-21T05:36:53;8.40;;;4.00;;
67108;SDS011;54027;50.786;7.058;2024-02-21T05:39:19;16.85;;;4.30;;
67108;SDS011;54027;50.786;7.058;2024-02-21T05:41:47;11.35;;;3.42;;
67108;SDS011;54027;50.786;7.058;2024-02-21T05:44:12;9.30;;;3.58;;
67108;SDS011;54027;50.786;7.058;2024-02-21T05:46:38;9.18;;;4.68;;
67108;SDS011;54027;50.786;7.058;2024-02-21T05:49:03;9.73;;;3.63;;
67108;SDS011;54027;50.786;7.058;2024-02-21T05:51:32;13.88;;;3.92;;
67108;SDS011;54027;50.786;7.058;2024-02-21T05:53:58;8.43;;;3.20;;
67108;SDS011;54027;50.786;7.058;2024-02-21T05:56:23;7.63;;;3.42;;
67108;SDS011;54027;50.786;7.058;2024-02-21T05:58:48;11.30;;;3.70;;
67108;SDS011;54027;50.786;7.058;2024-02-21T06:01:14;8.60;;;3.88;;
67108;SDS011;54027;50.786;7.058;2024-02-21T06:03:39;10.23;;;3.47;;
67108;SDS011;54027;50.786;7.058;2024-02-21T06:06:05;6.15;;;3.10;;
67108;SDS011;54027;50.786;7.058;2024-02-21T06:08:30;9.43;;;3.65;;
67108;SDS011;54027;50.786;7.058;2024-02-21T06:10:56;10.30;;;4.00;;
67108;SDS011;54027;50.786;7.058;2024-02-21T06:13:21;12.57;;;3.72;;
67108;SDS011;54027;50.786;7.058;2024-02-21T06:15:48;10.38;;;3.20;;
67108;SDS011;54027;50.786;7.058;2024-02-21T06:18:15;8.45;;;3.63;;
67108;SDS011;54027;50.786;7.058;2024-02-21T06:20:43;14.52;;;4.10;;
67108;SDS011;54027;50.786;7.058;2024-02-21T06:23:09;11.07;;;3.60;;
67108;SDS011;54027;50.786;7.058;2024-02-21T06:25:35;12.45;;;4.40;;
67108;SDS011;54027;50.786;7.058;2024-02-21T06:28:00;9.02;;;3.67;;
67108;SDS011;54027;50.786;7.058;2024-02-21T06:30:25;10.77;;;3.75;;
67108;SDS011;54027;50.786;7.058;2024-02-21T06:32:51;9.75;;;3.50;;
67108;SDS011;54027;50.786;7.058;2024-02-21T06:35:17;14.27;;;4.65;;
67108;SDS011;54027;50.786;7.058;2024-02-21T06:37:42;12.65;;;3.40;;
67108;SDS011;54027;50.786;7.058;2024-02-21T06:40:08;10.43;;;3.83;;
67108;SDS011;54027;50.786;7.058;2024-02-21T06:42:33;12.23;;;4.15;;
67108;SDS011;54027;50.786;7.058;2024-02-21T06:44:58;14.23;;;4.03;;
67108;SDS011;54027;50.786;7.058;2024-02-21T06:47:24;12.27;;;3.67;;
67108;SDS011;54027;50.786;7.058;2024-02-21T06:49:50;10.80;;;4.43;;
67108;SDS011;54027;50.786;7.058;2024-02-21T06:52:18;12.73;;;3.58;;
67108;SDS011;54027;50.786;7.058;2024-02-21T06:54:47;11.90;;;3.20;;
67108;SDS011;54027;50.786;7.058;2024-02-21T06:57:13;12.68;;;3.90;;
67108;SDS011;54027;50.786;7.058;2024-02-21T06:59:39;11.45;;;3.95;;
67108;SDS011;54027;50.786;7.058;2024-02-21T07:02:05;19.10;;;5.10;;
67108;SDS011;54027;50.786;7.058;2024-02-21T07:04:30;10.02;;;3.75;;
67108;SDS011;54027;50.786;7.058;2024-02-21T07:06:56;9.57;;;3.60;;
67108;SDS011;54027;50.786;7.058;2024-02-21T07:09:21;11.70;;;3.75;;
67108;SDS011;54027;50.786;7.058;2024-02-21T07:11:46;11.05;;;4.22;;
67108;SDS011;54027;50.786;7.058;2024-02-21T07:14:13;9.27;;;3.28;;
67108;SDS011;54027;50.786;7.058;2024-02-21T07:16:40;9.23;;;3.70;;
67108;SDS011;54027;50.786;7.058;2024-02-21T07:19:05;9.73;;;3.47;;
67108;SDS011;54027;50.786;7.058;2024-02-21T07:21:31;14.00;;;3.92;;
67108;SDS011;54027;50.786;7.058;2024-02-21T07:23:57;10.52;;;3.75;;
67108;SDS011;54027;50.786;7.058;2024-02-21T07:26:22;9.30;;;3.00;;
67108;SDS011;54027;50.786;7.058;2024-02-21T07:28:47;11.43;;;3.70;;
67108;SDS011;54027;50.786;7.058;2024-02-21T07:31:13;16.98;;;4.70;;
67108;SDS011;54027;50.786;7.058;2024-02-21T07:33:38;13.15;;;4.45;;
67108;SDS011;54027;50.786;7.058;2024-02-21T07:36:07;14.80;;;4.30;;
67108;SDS011;54027;50.786;7.058;2024-02-21T07:38:36;17.90;;;4.80;;
67108;SDS011;54027;50.786;7.058;2024-02-21T07:41:02;13.32;;;4.32;;
67108;SDS011;54027;50.786;7.058;2024-02-21T07:43:29;13.05;;;4.30;;
67108;SDS011;54027;50.786;7.058;2024-02-21T07:45:54;15.90;;;4.50;;
67108;SDS011;54027;50.786;7.058;2024-02-21T07:48:20;10.75;;;4.38;;
67108;SDS011;54027;50.786;7.058;2024-02-21T07:50:49;16.17;;;5.20;;
67108;SDS011;54027;50.786;7.058;2024-02-21T07:53:14;13.77;;;4.20;;
67108;SDS011;54027;50.786;7.058;2024-02-21T07:55:40;20.65;;;5.38;;
67108;SDS011;54027;50.786;7.058;2024-02-21T07:58:05;15.15;;;4.68;;
67108;SDS011;54027;50.786;7.058;2024-02-21T08:00:30;18.00;;;5.03;;
67108;SDS011;54027;50.786;7.058;2024-02-21T08:02:56;11.93;;;4.72;;
67108;SDS011;54027;50.786;7.058;2024-02-21T08:05:22;10.85;;;4.88;;
67108;SDS011;54027;50.786;7.058;2024-02-21T08:07:48;14.13;;;4.95;;
67108;SDS011;54027;50.786;7.058;2024-02-21T08:10:13;15.50;;;4.82;;
67108;SDS011;54027;50.786;7.058;2024-02-21T08:12:38;12.05;;;4.38;;
67108;SDS011;54027;50.786;7.058;2024-02-21T08:15:04;15.70;;;5.03;;
67108;SDS011;54027;50.786;7.058;2024-02-21T08:17:30;11.70;;;4.72;;
67108;SDS011;54027;50.786;7.058;2024-02-21T08:19:55;12.82;;;4.70;;
67108;SDS011;54027;50.786;7.058;2024-02-21T08:22:21;11.63;;;4.50;;
67108;SDS011;54027;50.786;7.058;2024-02-21T08:24:46;9.82;;;4.07;;
67108;SDS011;54027;50.786;7.058;2024-02-21T08:27:11;15.90;;;4.18;;
67108;SDS011;54027;50.786;7.058;2024-02-21T08:29:37;20.92;;;5.80;;
67108;SDS011;54027;50.786;7.058;2024-02-21T08:32:02;10.63;;;3.88;;
67108;SDS011;54027;50.786;7.058;2024-02-21T08:34:28;12.18;;;4.80;;
67108;SDS011;54027;50.786;7.058;2024-02-21T08:36:55;10.98;;;4.50;;
67108;SDS011;54027;50.786;7.058;2024-02-21T08:39:20;13.07;;;4.50;;
67108;SDS011;54027;50.786;7.058;2024-02-21T08:41:46;12.13;;;4.15;;
67108;SDS011;54027;50.786;7.058;2024-02-21T08:44:11;14.45;;;4.57;;
67108;SDS011;54027;50.786;7.058;2024-02-21T08:46:36;10.18;;;4.28;;
67108;SDS011;54027;50.786;7.058;2024-02-21T08:49:05;16.00;;;4.72;;
67108;SDS011;54027;50.786;7.058;2024-02-21T08:51:30;9.40;;;3.63;;
67108;SDS011;54027;50.786;7.058;2024-02-21T08:53:56;13.77;;;4.30;;
67108;SDS011;54027;50.786;7.058;2024-02-21T08:56:21;17.05;;;3.72;;
67108;SDS011;54027;50.786;7.058;2024-02-21T08:58:46;10.52;;;3.47;;
67108;SDS011;54027;50.786;7.058;2024-02-21T09:01:12;17.20;;;4.03;;
67108;SDS011;54027;50.786;7.058;2024-02-21T09:03:37;11.57;;;4.40;;
67108;SDS011;54027;50.786;7.058;2024-02-21T09:06:04;15.45;;;3.80;;
67108;SDS011;54027;50.786;7.058;2024-02-21T09:08:30;13.35;;;4.13;;
67108;SDS011;54027;50.786;7.058;2024-02-21T09:10:55;15.07;;;4.07;;
67108;SDS011;54027;50.786;7.058;2024-02-21T09:13:21;11.63;;;3.45;;
67108;SDS011;54027;50.786;7.058;2024-02-21T09:15:47;12.52;;;3.72;;
67108;SDS011;54027;50.786;7.058;2024-02-21T09:18:13;10.77;;;3.63;;
67108;SDS011;54027;50.786;7.058;2024-02-21T09:20:39;14.70;;;4.05;;
67108;SDS011;54027;50.786;7.058;2024-02-21T09:23:04;11.18;;;3.72;;
67108;SDS011;54027;50.786;7.058;2024-02-21T09:25:29;17.35;;;3.47;;
67108;SDS011;54027;50.786;7.058;2024-02-21T09:27:56;18.98;;;4.30;;
67108;SDS011;54027;50.786;7.058;2024-02-21T09:30:23;14.15;;;4.15;;
67108;SDS011;54027;50.786;7.058;2024-02-21T09:32:49;12.70;;;3.63;;
67108;SDS011;54027;50.786;7.058;2024-02-21T09:35:14;12.00;;;3.55;;
67108;SDS011;54027;50.786;7.058;2024-02-21T09:37:40;10.65;;;4.40;;
67108;SDS011;54027;50.786;7.058;2024-02-21T09:40:05;9.60;;;3.00;;
67108;SDS011;54027;50.786;7.058;2024-02-21T09:42:38;11.75;;;3.75;;
67108;SDS011;54027;50.786;7.058;2024-02-21T09:45:07;12.45;;;4.07;;
67108;SDS011;54027;50.786;7.058;2024-02-21T09:47:43;18.13;;;3.58;;
67108;SDS011;54027;50.786;7.058;2024-02-21T09:50:29;10.52;;;3.38;;
67108;SDS011;54027;50.786;7.058;2024-02-21T09:52:56;9.88;;;3.90;;
67108;SDS011;54027;50.786;7.058;2024-02-21T09:55:24;10.18;;;3.72;;
67108;SDS011;54027;50.786;7.058;2024-02-21T09:57:52;7.28;;;3.63;;
67108;SDS011;54027;50.786;7.058;2024-02-21T10:00:18;10.52;;;3.60;;
67108;SDS011;54027;50.786;7.058;2024-02-21T10:02:47;10.40;;;3.45;;
67108;SDS011;54027;50.786;7.058;2024-02-21T10:05:14;9.75;;;3.30;;
67108;SDS011;54027;50.786;7.058;2024-02-21T10:07:39;12.68;;;3.35;;
67108;SDS011;54027;50.786;7.058;2024-02-21T10:10:05;11.63;;;3.58;;
67108;SDS011;54027;50.786;7.058;2024-02-21T10:12:31;10.25;;;3.22;;
67108;SDS011;54027;50.786;7.058;2024-02-21T10:15:00;15.00;;;4.07;;
67108;SDS011;54027;50.786;7.058;2024-02-21T10:17:30;10.18;;;3.47;;
67108;SDS011;54027;50.786;7.058;2024-02-21T10:20:06;10.15;;;3.13;;
67108;SDS011;54027;50.786;7.058;2024-02-21T10:22:31;16.45;;;3.55;;
67108;SDS011;54027;50.786;7.058;2024-02-21T10:25:06;10.38;;;3.20;;
67108;SDS011;54027;50.786;7.058;2024-02-21T10:27:36;11.35;;;4.10;;
67108;SDS011;54027;50.786;7.058;2024-02-21T10:30:02;10.80;;;3.35;;
67108;SDS011;54027;50.786;7.058;2024-02-21T10:32:27;9.02;;;3.05;;
67108;SDS011;54027;50.786;7.058;2024-02-21T10:35:00;10.23;;;3.10;;
67108;SDS011;54027;50.786;7.058;2024-02-21T10:37:27;6.97;;;2.80;;
67108;SDS011;54027;50.786;7.058;2024-02-21T10:39:53;11.00;;;3.03;;
67108;SDS011;54027;50.786;7.058;2024-02-21T10:42:19;11.68;;;3.30;;
67108;SDS011;54027;50.786;7.058;2024-02-21T10:44:46;11.82;;;3.40;;
67108;SDS011;54027;50.786;7.058;2024-02-21T10:47:16;8.82;;;2.85;;
67108;SDS011;54027;50.786;7.058;2024-02-21T10:49:46;11.18;;;3.40;;
67108;SDS011;54027;50.786;7.058;2024-02-21T10:55:21;10.38;;;3.22;;
67108;SDS011;54027;50.786;7.058;2024-02-21T10:58:02;8.93;;;3.05;;
67108;SDS011;54027;50.786;7.058;2024-02-21T11:00:29;11.52;;;3.22;;
67108;SDS011;54027;50.786;7.058;2024-02-21T11:02:58;8.85;;;3.28;;
67108;SDS011;54027;50.786;7.058;2024-02-21T11:05:24;8.25;;;3.03;;
67108;SDS011;54027;50.786;7.058;2024-02-21T11:07:52;10.65;;;2.97;;
67108;SDS011;54027;50.786;7.058;2024-02-21T11:10:24;17.45;;;7.25;;
67108;SDS011;54027;50.786;7.058;2024-02-21T11:12:54;8.82;;;3.50;;
67108;SDS011;54027;50.786;7.058;2024-02-21T11:15:33;10.27;;;3.95;;
67108;SDS011;54027;50.786;7.058;2024-02-21T11:17:58;6.10;;;2.58;;
67108;SDS011;54027;50.786;7.058;2024-02-21T11:20:33;13.32;;;2.60;;
67108;SDS011;54027;50.786;7.058;2024-02-21T11:23:00;11.57;;;3.95;;
67108;SDS011;54027;50.786;7.058;2024-02-21T11:25:26;11.80;;;4.70;;
67108;SDS011;54027;50.786;7.058;2024-02-21T11:27:58;22.58;;;8.30;;
67108;SDS011;54027;50.786;7.058;2024-02-21T11:30:31;19.60;;;8.38;;
67108;SDS011;54027;50.786;7.058;2024-02-21T11:33:01;11.48;;;4.05;;
67108;SDS011;54027;50.786;7.058;2024-02-21T11:35:32;11.60;;;4.22;;
67108;SDS011;54027;50.786;7.058;2024-02-21T11:38:10;15.30;;;4.28;;
67108;SDS011;54027;50.786;7.058;2024-02-21T11:40:39;22.88;;;7.25;;
67108;SDS011;54027;50.786;7.058;2024-02-21T11:43:06;26.58;;;9.98;;
67108;SDS011;54027;50.786;7.058;2024-02-21T11:45:32;27.35;;;8.48;;
67108;SDS011;54027;50.786;7.058;2024-02-21T11:47:58;10.75;;;4.13;;
67108;SDS011;54027;50.786;7.058;2024-02-21T11:50:25;9.32;;;3.28;;
67108;SDS011;54027;50.786;7.058;2024-02-21T11:52:54;32.13;;;11.70;;
67108;SDS011;54027;50.786;7.058;2024-02-21T11:55:20;16.83;;;6.70;;
67108;SDS011;54027;50.786;7.058;2024-02-21T11:57:47;14.75;;;6.05;;
67108;SDS011;54027;50.786;7.058;2024-02-21T12:00:13;11.45;;;5.60;;
67108;SDS011;54027;50.786;7.058;2024-02-21T12:02:40;9.48;;;4.20;;
67108;SDS011;54027;50.786;7.058;2024-02-21T12:05:06;14.75;;;4.22;;
67108;SDS011;54027;50.786;7.058;2024-02-21T12:07:32;8.95;;;3.55;;
67108;SDS011;54027;50.786;7.058;2024-02-21T12:10:01;11.30;;;3.17;;
67108;SDS011;54027;50.786;7.058;2024-02-21T12:12:26;6.53;;;2.80;;
67108;SDS011;54027;50.786;7.058;2024-02-21T12:14:55;10.88;;;3.10;;
67108;SDS011;54027;50.786;7.058;2024-02-21T12:17:23;6.60;;;3.25;;
67108;SDS011;54027;50.786;7.058;2024-02-21T12:19:48;6.25;;;2.30;;
67108;SDS011;54027;50.786;7.058;2024-02-21T12:22:18;9.98;;;2.95;;
67108;SDS011;54027;50.786;7.058;2024-02-21T12:24:44;5.82;;;2.65;;
67108;SDS011;54027;50.786;7.058;2024-02-21T12:27:12;10.20;;;2.90;;
67108;SDS011;54027;50.786;7.058;2024-02-21T12:29:38;10.77;;;2.60;;
67108;SDS011;54027;50.786;7.058;2024-02-21T12:32:04;9.50;;;2.70;;
67108;SDS011;54027;50.786;7.058;2024-02-21T12:34:32;12.68;;;3.60;;
67108;SDS011;54027;50.786;7.058;2024-02-21T12:36:58;11.18;;;3.13;;
67108;SDS011;54027;50.786;7.058;2024-02-21T12:39:24;7.82;;;2.88;;
67108;SDS011;54027;50.786;7.058;2024-02-21T12:41:49;9.73;;;2.92;;
67108;SDS011;54027;50.786;7.058;2024-02-21T12:44:15;9.45;;;3.38;;
67108;SDS011;54027;50.786;7.058;2024-02-21T12:46:42;10.23;;;3.42;;
67108;SDS011;54027;50.786;7.058;2024-02-21T12:49:07;7.65;;;2.80;;
67108;SDS011;54027;50.786;7.058;2024-02-21T12:51:33;8.65;;;2.95;;
67108;SDS011;54027;50.786;7.058;2024-02-21T12:53:59;9.15;;;3.70;;
67108;SDS011;54027;50.786;7.058;2024-02-21T12:56:25;5.38;;;2.45;;
67108;SDS011;54027;50.786;7.058;2024-02-21T12:58:52;9.02;;;3.03;;
67108;SDS011;54027;50.786;7.058;2024-02-21T13:01:18;8.70;;;3.00;;
67108;SDS011;54027;50.786;7.058;2024-02-21T13:03:43;8.65;;;3.60;;
67108;SDS011;54027;50.786;7.058;2024-02-21T13:06:09;7.10;;;2.42;;
67108;SDS011;54027;50.786;7.058;2024-02-21T13:08:38;8.13;;;3.03;;
67108;SDS011;54027;50.786;7.058;2024-02-21T13:11:04;9.90;;;2.95;;
67108;SDS011;54027;50.786;7.058;2024-02-21T13:13:30;8.63;;;2.55;;
67108;SDS011;54027;50.786;7.058;2024-02-21T13:15:57;10.55;;;2.63;;
67108;SDS011;54027;50.786;7.058;2024-02-21T13:18:23;10.60;;;2.58;;
67108;SDS011;54027;50.786;7.058;2024-02-21T13:20:48;10.35;;;3.00;;
67108;SDS011;54027;50.786;7.058;2024-02-21T13:23:14;7.93;;;3.03;;
67108;SDS011;54027;50.786;7.058;2024-02-21T13:25:39;10.98;;;3.28;;
67108;SDS011;54027;50.786;7.058;2024-02-21T13:28:04;8.07;;;2.83;;
67108;SDS011;54027;50.786;7.058;2024-02-21T13:30:30;8.05;;;2.75;;
67108;SDS011;54027;50.786;7.058;2024-02-21T13:32:55;8.90;;;2.53;;
67108;SDS011;54027;50.786;7.058;2024-02-21T13:35:21;9.38;;;2.58;;
67108;SDS011;54027;50.786;7.058;2024-02-21T13:37:46;8.70;;;2.90;;
67108;SDS011;54027;50.786;7.058;2024-02-21T13:40:12;12.10;;;3.30;;
67108;SDS011;54027;50.786;7.058;2024-02-21T13:42:40;8.93;;;2.75;;
67108;SDS011;54027;50.786;7.058;2024-02-21T13:45:05;13.25;;;2.75;;
67108;SDS011;54027;50.786;7.058;2024-02-21T13:47:34;9.15;;;2.72;;
67108;SDS011;54027;50.786;7.058;2024-02-21T13:50:01;10.77;;;3.35;;
67108;SDS011;54027;50.786;7.058;2024-02-21T13:52:29;6.90;;;2.38;;
67108;SDS011;54027;50.786;7.058;2024-02-21T13:54:55;5.50;;;1.98;;
67108;SDS011;54027;50.786;7.058;2024-02-21T13:57:20;6.82;;;2.38;;
67108;SDS011;54027;50.786;7.058;2024-02-21T13:59:46;6.70;;;2.63;;
67108;SDS011;54027;50.786;7.058;2024-02-21T14:02:11;5.13;;;2.20;;
67108;SDS011;54027;50.786;7.058;2024-02-21T14:04:38;6.70;;;2.15;;
67108;SDS011;54027;50.786;7.058;2024-02-21T14:07:03;6.90;;;2.40;;
67108;SDS011;54027;50.786;7.058;2024-02-21T14:09:30;6.53;;;1.98;;
67108;SDS011;54027;50.786;7.058;2024-02-21T14:11:55;6.00;;;2.03;;
67108;SDS011;54027;50.786;7.058;2024-02-21T14:14:21;7.28;;;2.72;;
67108;SDS011;54027;50.786;7.058;2024-02-21T14:16:46;8.32;;;2.92;;
67108;SDS011;54027;50.786;7.058;2024-02-21T14:19:13;10.07;;;2.30;;
67108;SDS011;54027;50.786;7.058;2024-02-21T14:21:38;7.13;;;2.35;;
67108;SDS011;54027;50.786;7.058;2024-02-21T14:24:04;11.25;;;2.85;;
67108;SDS011;54027;50.786;7.058;2024-02-21T14:26:30;6.45;;;2.20;;
67108;SDS011;54027;50.786;7.058;2024-02-21T14:28:59;4.45;;;2.05;;
67108;SDS011;54027;50.786;7.058;2024-02-21T14:31:25;5.85;;;2.05;;
67108;SDS011;54027;50.786;7.058;2024-02-21T14:33:50;5.32;;;2.10;;
67108;SDS011;54027;50.786;7.058;2024-02-21T14:36:16;5.93;;;2.05;;